Time;durP1;ratioP1;P1;durP2;ratioP2;P2;SDS_P1;SDS_P2;PMS_P1;PMS_P2;Temp;Humidity;BMP_temperature;BMP_pressure;BME280_temperature;BME280_humidity;BME280_pressure;Samples;Min_cycle;Max_cycle;Signal;HPM_P1;HPM_P2
2023/07/18 00:00:40;;;;;;;4.82;1.50;;;;;;;;;;5052044;28;20894;-82
2023/07/18 00:03:05;;;;;;;3.60;1.50;;;;;;;;;;5059761;28;20036;-81
2023/07/18 00:05:36;;;;;;;3.35;1.52;;;;;;;;;;5054818;28;20024;-82
2023/07/18 00:08:01;;;;;;;4.38;1.90;;;;;;;;;;5065063;28;20033;-81
2023/07/18 00:10:27;;;;;;;3.33;1.40;;;;;;;;;;5058035;28;20040;-81
2023/07/18 00:12:52;;;;;;;3.25;1.50;;;;;;;;;;5059840;28;20042;-82
2023/07/18 00:15:17;;;;;;;4.88;1.67;;;;;;;;;;5051851;28;20036;-82
2023/07/18 00:17:46;;;;;;;4.65;1.52;;;;;;;;;;5064458;28;20032;-83
2023/07/18 00:20:17;;;;;;;3.90;1.50;;;;;;;;;;5064579;28;20050;-82
2023/07/18 00:22:44;;;;;;;4.22;1.73;;;;;;;;;;5056303;28;20518;-82
2023/07/18 00:25:13;;;;;;;5.13;1.83;;;;;;;;;;5066237;28;20032;-82
2023/07/18 00:27:39;;;;;;;5.18;1.88;;;;;;;;;;5052967;28;20556;-82
2023/07/18 00:30:07;;;;;;;4.30;1.70;;;;;;;;;;5071332;28;20033;-82
2023/07/18 00:32:32;;;;;;;5.43;2.15;;;;;;;;;;5059087;28;20076;-81
2023/07/18 00:34:58;;;;;;;3.80;1.60;;;;;;;;;;5061892;28;20093;-82
2023/07/18 00:37:23;;;;;;;4.20;1.50;;;;;;;;;;5062071;28;20042;-81
2023/07/18 00:39:49;;;;;;;4.97;1.90;;;;;;;;;;5064565;28;20431;-81
2023/07/18 00:42:15;;;;;;;4.03;1.70;;;;;;;;;;5070063;28;20029;-82
2023/07/18 00:44:40;;;;;;;4.35;1.75;;;;;;;;;;5073768;28;20506;-81
2023/07/18 00:47:07;;;;;;;4.72;1.75;;;;;;;;;;5056190;28;20051;-80
2023/07/18 00:49:34;;;;;;;5.28;1.60;;;;;;;;;;5044432;28;20036;-82
2023/07/18 00:52:01;;;;;;;4.05;2.10;;;;;;;;;;5059211;28;20301;-81
2023/07/18 00:54:27;;;;;;;4.63;2.00;;;;;;;;;;5072836;28;20036;-81
2023/07/18 00:56:55;;;;;;;4.43;1.70;;;;;;;;;;5057183;28;20508;-80
2023/07/18 00:59:21;;;;;;;3.65;1.70;;;;;;;;;;5063634;28;20055;-81
2023/07/18 01:01:46;;;;;;;6.30;2.28;;;;;;;;;;5057875;28;20098;-81
2023/07/18 01:04:14;;;;;;;4.60;1.88;;;;;;;;;;5071001;28;20063;-80
2023/07/18 01:06:40;;;;;;;4.78;2.10;;;;;;;;;;5056991;28;20044;-80
2023/07/18 01:09:06;;;;;;;3.08;1.60;;;;;;;;;;5055039;28;20032;-80
2023/07/18 01:11:33;;;;;;;4.13;2.15;;;;;;;;;;5070525;28;20028;-81
2023/07/18 01:13:58;;;;;;;6.10;1.90;;;;;;;;;;5059472;28;20110;-81
2023/07/18 01:16:24;;;;;;;4.63;1.80;;;;;;;;;;5064959;28;20129;-80
2023/07/18 01:18:49;;;;;;;3.55;1.80;;;;;;;;;;5060191;28;20036;-83
2023/07/18 01:21:23;;;;;;;5.18;2.10;;;;;;;;;;5063017;28;20044;-81
2023/07/18 01:23:49;;;;;;;3.88;1.73;;;;;;;;;;5064295;28;20125;-82
2023/07/18 01:26:15;;;;;;;5.72;2.05;;;;;;;;;;5061244;28;20506;-83
2023/07/18 01:28:44;;;;;;;5.38;1.88;;;;;;;;;;5050058;28;20041;-82
2023/07/18 01:31:10;;;;;;;4.35;2.05;;;;;;;;;;5058800;28;20056;-81
2023/07/18 01:33:35;;;;;;;4.93;1.70;;;;;;;;;;5065126;28;20039;-82
2023/07/18 01:36:01;;;;;;;4.68;1.90;;;;;;;;;;5070800;28;20051;-80
2023/07/18 01:38:29;;;;;;;4.63;1.88;;;;;;;;;;5064334;28;20090;-81
2023/07/18 01:40:56;;;;;;;4.18;1.90;;;;;;;;;;5059349;28;20394;-81
2023/07/18 01:43:22;;;;;;;3.72;1.80;;;;;;;;;;5058678;28;20037;-81
2023/07/18 01:45:48;;;;;;;3.78;1.67;;;;;;;;;;5072547;28;20090;-81
2023/07/18 01:48:13;;;;;;;5.18;1.90;;;;;;;;;;5066756;28;20084;-80
2023/07/18 01:50:38;;;;;;;3.22;1.70;;;;;;;;;;5066897;28;20794;-80
2023/07/18 01:53:11;;;;;;;3.83;2.00;;;;;;;;;;5064511;28;20025;-80
2023/07/18 01:55:38;;;;;;;4.63;1.70;;;;;;;;;;5063505;28;20039;-82
2023/07/18 01:58:04;;;;;;;4.15;2.00;;;;;;;;;;5064045;28;20035;-80
2023/07/18 02:00:35;;;;;;;5.45;2.05;;;;;;;;;;5063959;28;20454;-81
2023/07/18 02:03:01;;;;;;;6.25;1.90;;;;;;;;;;5054801;28;20604;-82
2023/07/18 02:05:30;;;;;;;3.28;1.40;;;;;;;;;;5066669;28;20028;-81
2023/07/18 02:07:57;;;;;;;5.10;1.98;;;;;;;;;;5076220;28;20039;-82
2023/07/18 02:10:23;;;;;;;3.25;1.75;;;;;;;;;;5075151;28;20404;-81
2023/07/18 02:12:50;;;;;;;5.97;1.75;;;;;;;;;;5065064;28;20039;-81
2023/07/18 02:15:15;;;;;;;4.95;2.08;;;;;;;;;;5068419;28;20131;-82
2023/07/18 02:17:42;;;;;;;5.03;2.00;;;;;;;;;;5073169;28;20147;-82
2023/07/18 02:20:09;;;;;;;4.07;1.90;;;;;;;;;;5084935;28;20039;-81
2023/07/18 02:22:35;;;;;;;4.85;1.85;;;;;;;;;;5065936;28;20024;-81
2023/07/18 02:25:03;;;;;;;4.50;1.75;;;;;;;;;;5068601;28;20040;-82
2023/07/18 02:27:30;;;;;;;6.28;2.20;;;;;;;;;;5065088;28;20059;-81
2023/07/18 02:29:56;;;;;;;4.22;2.30;;;;;;;;;;5074991;28;20036;-81
2023/07/18 02:32:22;;;;;;;7.32;2.17;;;;;;;;;;5075431;28;20453;-83
2023/07/18 02:34:48;;;;;;;6.55;2.15;;;;;;;;;;5078794;28;20029;-81
2023/07/18 02:37:14;;;;;;;4.53;2.03;;;;;;;;;;5072620;28;20117;-81
2023/07/18 02:39:40;;;;;;;4.65;2.05;;;;;;;;;;5067517;28;20604;-81
2023/07/18 02:42:06;;;;;;;5.88;2.30;;;;;;;;;;5075870;28;20031;-81
2023/07/18 02:44:32;;;;;;;3.50;1.85;;;;;;;;;;5058865;28;20499;-81
2023/07/18 02:46:57;;;;;;;5.05;2.35;;;;;;;;;;5058177;28;20039;-81
2023/07/18 02:49:25;;;;;;;4.15;2.05;;;;;;;;;;5065775;28;20028;-81
2023/07/18 02:51:51;;;;;;;4.00;2.10;;;;;;;;;;5056658;28;20126;-81
2023/07/18 02:54:17;;;;;;;4.03;2.05;;;;;;;;;;5066629;28;20141;-81
2023/07/18 02:56:43;;;;;;;4.32;2.00;;;;;;;;;;5066422;28;20056;-81
2023/07/18 02:59:08;;;;;;;4.93;2.50;;;;;;;;;;5061496;28;20125;-81
2023/07/18 03:01:34;;;;;;;5.03;2.10;;;;;;;;;;5066638;28;20032;-81
2023/07/18 03:04:00;;;;;;;8.57;2.25;;;;;;;;;;5061433;28;20434;-82
2023/07/18 03:06:26;;;;;;;5.25;2.33;;;;;;;;;;5040189;28;20706;-81
2023/07/18 03:08:51;;;;;;;5.47;2.40;;;;;;;;;;5058564;28;20036;-81
2023/07/18 03:11:18;;;;;;;5.97;2.47;;;;;;;;;;5079745;28;20035;-81
2023/07/18 03:13:44;;;;;;;5.28;2.50;;;;;;;;;;5058859;28;20515;-81
2023/07/18 03:16:12;;;;;;;5.38;2.40;;;;;;;;;;5066283;28;20040;-82
2023/07/18 03:18:37;;;;;;;7.30;2.45;;;;;;;;;;5063187;28;20150;-81
2023/07/18 03:21:03;;;;;;;5.47;2.50;;;;;;;;;;5061431;28;20118;-81
2023/07/18 03:23:29;;;;;;;5.20;2.20;;;;;;;;;;5057316;28;20154;-82
2023/07/18 03:25:55;;;;;;;4.38;2.40;;;;;;;;;;5072374;28;20033;-81
2023/07/18 03:28:21;;;;;;;6.55;2.45;;;;;;;;;;5060647;28;20491;-81
2023/07/18 03:30:46;;;;;;;4.90;2.25;;;;;;;;;;5061795;28;20240;-82
2023/07/18 03:33:12;;;;;;;4.40;2.45;;;;;;;;;;5063181;28;20458;-81
2023/07/18 03:35:38;;;;;;;6.57;2.92;;;;;;;;;;5064988;28;20043;-82
2023/07/18 03:38:06;;;;;;;4.95;2.30;;;;;;;;;;5067855;28;20037;-81
2023/07/18 03:40:32;;;;;;;7.65;2.38;;;;;;;;;;5049614;28;20040;-81
2023/07/18 03:42:57;;;;;;;4.53;2.58;;;;;;;;;;5066085;28;20037;-81
2023/07/18 03:45:22;;;;;;;6.30;2.70;;;;;;;;;;5070652;28;20043;-82
2023/07/18 03:47:48;;;;;;;6.30;2.40;;;;;;;;;;5055284;28;20036;-81
2023/07/18 03:50:15;;;;;;;5.32;2.63;;;;;;;;;;5056266;28;20031;-82
2023/07/18 03:52:41;;;;;;;5.15;2.60;;;;;;;;;;5066470;28;20024;-81
2023/07/18 03:55:07;;;;;;;5.88;2.90;;;;;;;;;;5059980;28;20115;-80
2023/07/18 03:57:33;;;;;;;4.93;2.58;;;;;;;;;;5063976;28;20111;-81
2023/07/18 03:59:59;;;;;;;5.13;2.45;;;;;;;;;;5056355;28;20107;-81
2023/07/18 04:02:25;;;;;;;6.00;2.97;;;;;;;;;;5074276;28;20103;-81
2023/07/18 04:04:51;;;;;;;5.38;2.20;;;;;;;;;;5066554;28;20036;-81
2023/07/18 04:07:16;;;;;;;5.22;2.45;;;;;;;;;;5058058;28;20066;-82
2023/07/18 04:09:42;;;;;;;4.25;2.17;;;;;;;;;;5061173;28;20102;-82
2023/07/18 04:12:16;;;;;;;6.10;2.55;;;;;;;;;;5073841;28;20032;-80
2023/07/18 04:14:42;;;;;;;5.18;2.80;;;;;;;;;;5045597;28;20040;-82
2023/07/18 04:17:07;;;;;;;6.28;2.42;;;;;;;;;;5057590;28;20043;-81
2023/07/18 04:19:33;;;;;;;5.10;2.30;;;;;;;;;;5051145;28;20040;-82
2023/07/18 04:21:58;;;;;;;5.60;2.65;;;;;;;;;;5058223;28;20080;-81
2023/07/18 04:24:23;;;;;;;5.35;2.20;;;;;;;;;;5057975;28;20033;-81
2023/07/18 04:26:49;;;;;;;6.38;2.72;;;;;;;;;;5060649;28;20137;-81
2023/07/18 04:29:24;;;;;;;4.57;2.40;;;;;;;;;;5058881;28;20039;-81
2023/07/18 04:31:49;;;;;;;6.47;2.60;;;;;;;;;;5062360;28;20028;-82
2023/07/18 04:34:15;;;;;;;5.93;2.45;;;;;;;;;;5065867;28;20048;-82
2023/07/18 04:36:44;;;;;;;7.10;2.50;;;;;;;;;;5063585;28;20068;-81
2023/07/18 04:39:10;;;;;;;5.78;2.60;;;;;;;;;;5075667;28;20461;-81
2023/07/18 04:41:36;;;;;;;6.53;2.90;;;;;;;;;;5059173;28;20036;-82
2023/07/18 04:44:01;;;;;;;6.00;3.20;;;;;;;;;;5063381;28;20044;-81
2023/07/18 04:46:29;;;;;;;7.35;3.08;;;;;;;;;;5058717;28;20617;-82
2023/07/18 04:48:55;;;;;;;6.38;3.20;;;;;;;;;;5060822;28;20365;-81
2023/07/18 04:51:20;;;;;;;6.68;3.30;;;;;;;;;;5063067;28;20033;-82
2023/07/18 04:53:46;;;;;;;5.65;3.03;;;;;;;;;;5066014;28;20036;-82
2023/07/18 04:56:14;;;;;;;5.47;2.95;;;;;;;;;;5063576;28;20032;-82
2023/07/18 04:58:39;;;;;;;5.82;3.25;;;;;;;;;;5062378;28;20476;-80
2023/07/18 05:01:28;;;;;;;5.93;3.10;;;;;;;;;;5062068;28;20051;-82
2023/07/18 05:03:58;;;;;;;7.40;3.22;;;;;;;;;;4997797;28;20560;-81
2023/07/18 05:06:24;;;;;;;5.05;2.67;;;;;;;;;;4981319;28;20037;-82
2023/07/18 05:08:49;;;;;;;6.70;3.25;;;;;;;;;;4985040;28;20049;-82
2023/07/18 05:11:14;;;;;;;6.35;2.75;;;;;;;;;;4962060;28;20480;-81
2023/07/18 05:13:42;;;;;;;5.65;2.65;;;;;;;;;;4969243;28;20116;-80
2023/07/18 05:16:08;;;;;;;6.97;2.83;;;;;;;;;;4967858;28;20052;-80
2023/07/18 05:18:33;;;;;;;6.47;2.88;;;;;;;;;;4967989;28;20041;-79
2023/07/18 05:20:58;;;;;;;5.88;2.40;;;;;;;;;;4981746;28;20030;-80
2023/07/18 05:23:24;;;;;;;4.90;2.50;;;;;;;;;;4982702;28;20129;-79
2023/07/18 05:25:56;;;;;;;6.28;2.88;;;;;;;;;;4958030;28;20039;-79
2023/07/18 05:28:22;;;;;;;6.30;2.80;;;;;;;;;;4968944;28;20045;-79
2023/07/18 05:30:48;;;;;;;5.15;2.63;;;;;;;;;;4961359;28;20034;-79
2023/07/18 05:33:13;;;;;;;5.80;2.83;;;;;;;;;;4977008;28;20038;-79
2023/07/18 05:35:39;;;;;;;6.78;2.60;;;;;;;;;;4994920;28;20040;-81
2023/07/18 05:38:08;;;;;;;4.95;2.70;;;;;;;;;;4965430;28;20077;-80
2023/07/18 05:40:33;;;;;;;5.53;2.50;;;;;;;;;;5012816;28;20024;-79
2023/07/18 05:42:58;;;;;;;5.93;2.40;;;;;;;;;;5071628;28;20036;-80
2023/07/18 05:45:24;;;;;;;5.30;2.70;;;;;;;;;;5064294;28;20024;-79
2023/07/18 05:47:49;;;;;;;4.57;2.35;;;;;;;;;;5073282;28;20024;-79
2023/07/18 05:50:15;;;;;;;6.65;2.40;;;;;;;;;;5074855;28;20040;-79
2023/07/18 05:52:40;;;;;;;5.05;2.60;;;;;;;;;;5073023;28;20039;-77
2023/07/18 05:55:07;;;;;;;3.85;2.08;;;;;;;;;;5064374;28;20033;-78
2023/07/18 05:57:33;;;;;;;4.00;2.30;;;;;;;;;;5072927;28;20028;-80
2023/07/18 05:59:58;;;;;;;7.15;2.30;;;;;;;;;;5074707;28;20036;-79
2023/07/18 06:02:24;;;;;;;7.75;2.53;;;;;;;;;;5074119;28;20440;-79
2023/07/18 06:04:49;;;;;;;5.57;2.40;;;;;;;;;;5074269;28;20043;-79
2023/07/18 06:07:19;;;;;;;6.63;2.25;;;;;;;;;;5061608;28;20034;-79
2023/07/18 06:09:49;;;;;;;7.78;2.58;;;;;;;;;;5060092;28;20148;-80
2023/07/18 06:12:14;;;;;;;6.30;2.50;;;;;;;;;;5046645;28;20027;-79
2023/07/18 06:14:39;;;;;;;6.28;2.50;;;;;;;;;;5058432;28;20496;-79
2023/07/18 06:17:05;;;;;;;4.88;2.30;;;;;;;;;;5061103;28;20043;-79
2023/07/18 06:19:30;;;;;;;6.93;2.60;;;;;;;;;;5066339;28;20051;-79
2023/07/18 06:21:57;;;;;;;4.25;2.20;;;;;;;;;;5064565;28;20406;-78
2023/07/18 06:24:24;;;;;;;6.10;2.40;;;;;;;;;;5054269;28;20403;-79
2023/07/18 06:26:49;;;;;;;4.78;2.30;;;;;;;;;;5065617;28;20080;-81
2023/07/18 06:29:17;;;;;;;5.72;2.50;;;;;;;;;;5073488;28;20510;-79
2023/07/18 06:31:44;;;;;;;7.50;2.40;;;;;;;;;;5064688;28;20085;-79
2023/07/18 06:34:09;;;;;;;6.10;2.80;;;;;;;;;;5078693;28;20107;-79
2023/07/18 06:36:35;;;;;;;6.78;2.75;;;;;;;;;;5058494;28;20650;-79
2023/07/18 06:39:00;;;;;;;5.97;2.70;;;;;;;;;;5059279;28;20036;-79
2023/07/18 06:41:25;;;;;;;6.10;2.47;;;;;;;;;;5058820;28;20435;-79
2023/07/18 06:43:58;;;;;;;4.82;2.05;;;;;;;;;;5066656;28;20075;-78
2023/07/18 06:46:24;;;;;;;6.43;2.60;;;;;;;;;;5068218;28;20028;-79
2023/07/18 06:48:49;;;;;;;5.80;2.70;;;;;;;;;;5064530;28;20042;-79
2023/07/18 06:51:15;;;;;;;6.38;2.72;;;;;;;;;;5061812;28;20500;-78
2023/07/18 06:53:40;;;;;;;7.00;2.80;;;;;;;;;;5067511;28;20039;-78
2023/07/18 06:56:06;;;;;;;7.93;2.85;;;;;;;;;;5082250;28;20055;-78
2023/07/18 06:58:31;;;;;;;5.25;2.65;;;;;;;;;;5079043;28;20062;-78
2023/07/18 07:00:57;;;;;;;6.20;2.65;;;;;;;;;;5065846;28;20052;-79
2023/07/18 07:03:22;;;;;;;8.63;2.95;;;;;;;;;;5062142;28;20097;-78
2023/07/18 07:05:48;;;;;;;5.45;2.22;;;;;;;;;;5066097;28;20064;-79
2023/07/18 07:08:19;;;;;;;8.45;2.50;;;;;;;;;;5076204;28;20029;-78
2023/07/18 07:10:53;;;;;;;5.53;2.15;;;;;;;;;;5064119;28;20036;-78
2023/07/18 07:13:19;;;;;;;5.20;2.58;;;;;;;;;;5057418;28;20105;-78
2023/07/18 07:15:44;;;;;;;6.28;2.72;;;;;;;;;;5062301;28;20477;-79
2023/07/18 07:18:10;;;;;;;7.35;2.80;;;;;;;;;;5061139;28;20028;-79
2023/07/18 07:20:36;;;;;;;5.38;2.40;;;;;;;;;;5082892;28;20108;-79
2023/07/18 07:23:02;;;;;;;6.65;2.60;;;;;;;;;;5077092;28;20147;-78
2023/07/18 07:25:31;;;;;;;6.18;2.45;;;;;;;;;;5071428;28;20033;-79
2023/07/18 07:27:57;;;;;;;5.47;2.45;;;;;;;;;;5056903;28;20678;-79
2023/07/18 07:30:23;;;;;;;6.15;2.28;;;;;;;;;;5061796;28;20032;-80
2023/07/18 07:32:54;;;;;;;5.30;2.60;;;;;;;;;;5060481;28;20037;-79
2023/07/18 07:35:20;;;;;;;6.78;2.50;;;;;;;;;;5082017;28;20136;-79
2023/07/18 07:38:06;;;;;;;7.18;2.70;;;;;;;;;;5050260;28;20052;-80
2023/07/18 07:40:34;;;;;;;6.18;2.47;;;;;;;;;;5078305;28;20036;-79
2023/07/18 07:42:59;;;;;;;6.85;2.38;;;;;;;;;;5057169;28;20031;-79
2023/07/18 07:45:25;;;;;;;4.72;2.28;;;;;;;;;;5065549;28;20502;-80
2023/07/18 07:47:50;;;;;;;7.18;2.30;;;;;;;;;;5063292;28;20278;-80
2023/07/18 07:50:19;;;;;;;6.07;1.98;;;;;;;;;;5061725;28;20035;-80
2023/07/18 07:52:45;;;;;;;6.45;2.38;;;;;;;;;;5079199;28;20526;-80
2023/07/18 07:55:11;;;;;;;5.38;2.00;;;;;;;;;;5054206;28;20032;-80
2023/07/18 07:57:37;;;;;;;5.40;2.03;;;;;;;;;;5055664;28;20086;-81
2023/07/18 08:00:04;;;;;;;7.40;2.17;;;;;;;;;;5066949;28;20033;-79
2023/07/18 08:02:29;;;;;;;6.50;2.07;;;;;;;;;;5066302;28;20750;-79
2023/07/18 08:04:54;;;;;;;7.97;2.80;;;;;;;;;;5066425;28;20051;-80
2023/07/18 08:07:20;;;;;;;5.75;1.95;;;;;;;;;;5063752;28;20028;-79
2023/07/18 08:09:45;;;;;;;6.53;2.03;;;;;;;;;;5074433;28;20044;-80
2023/07/18 08:12:12;;;;;;;5.47;1.80;;;;;;;;;;5048296;28;20032;-80
2023/07/18 08:14:38;;;;;;;4.68;1.70;;;;;;;;;;5065531;28;20448;-80
2023/07/18 08:17:04;;;;;;;5.55;2.00;;;;;;;;;;5061539;28;20131;-81
2023/07/18 08:19:32;;;;;;;6.60;1.80;;;;;;;;;;5059804;28;20043;-80
2023/07/18 08:22:03;;;;;;;;;;;;;;;;;;5049515;28;20569;-82
2023/07/18 08:24:29;;;;;;;4.72;1.65;;;;;;;;;;5060585;28;20287;-81
2023/07/18 08:26:56;;;;;;;5.45;1.88;;;;;;;;;;5068931;28;20033;-80
2023/07/18 08:29:24;;;;;;;5.13;1.63;;;;;;;;;;5065469;28;20040;-81
2023/07/18 08:31:55;;;;;;;5.45;1.73;;;;;;;;;;5056619;28;20081;-81
2023/07/18 08:34:20;;;;;;;5.55;1.83;;;;;;;;;;5063413;28;20476;-80
2023/07/18 08:36:47;;;;;;;5.40;1.58;;;;;;;;;;5058272;28;20119;-81
2023/07/18 08:39:13;;;;;;;8.60;1.70;;;;;;;;;;5064224;28;20384;-81
2023/07/18 08:41:43;;;;;;;5.05;1.40;;;;;;;;;;5064196;28;20043;-80
2023/07/18 08:44:10;;;;;;;4.70;1.30;;;;;;;;;;5064991;28;20033;-81
2023/07/18 08:46:35;;;;;;;4.28;1.45;;;;;;;;;;5062512;28;20487;-81
2023/07/18 08:49:01;;;;;;;5.65;1.67;;;;;;;;;;5075174;28;20048;-82
2023/07/18 08:51:28;;;;;;;5.63;1.70;;;;;;;;;;5053293;28;20064;-80
2023/07/18 08:53:53;;;;;;;4.03;1.40;;;;;;;;;;5061485;28;20040;-81
2023/07/18 08:56:19;;;;;;;4.00;1.50;;;;;;;;;;5063559;28;20085;-81
2023/07/18 08:58:44;;;;;;;6.07;1.50;;;;;;;;;;5072341;28;20126;-81
2023/07/18 09:01:10;;;;;;;4.57;1.63;;;;;;;;;;5073885;28;20080;-81
2023/07/18 09:03:35;;;;;;;4.25;1.52;;;;;;;;;;5062259;28;20496;-80
2023/07/18 09:06:02;;;;;;;3.13;1.38;;;;;;;;;;5066644;28;20062;-80
2023/07/18 09:08:29;;;;;;;4.32;1.45;;;;;;;;;;5063457;28;20376;-79
2023/07/18 09:11:02;;;;;;;5.05;1.60;;;;;;;;;;5064874;28;20039;-79
2023/07/18 09:13:31;;;;;;;4.63;1.48;;;;;;;;;;5063472;28;20032;-80
2023/07/18 09:15:56;;;;;;;4.00;1.20;;;;;;;;;;5062848;28;20044;-80
2023/07/18 09:18:25;;;;;;;3.85;1.10;;;;;;;;;;5062689;28;20048;-81
2023/07/18 09:20:54;;;;;;;5.18;1.20;;;;;;;;;;5059175;28;20032;-82
2023/07/18 09:23:20;;;;;;;5.07;1.25;;;;;;;;;;5063385;28;20446;-81
2023/07/18 09:25:45;;;;;;;3.17;1.10;;;;;;;;;;5057586;28;20032;-81
2023/07/18 09:28:12;;;;;;;3.95;1.20;;;;;;;;;;5058571;28;20070;-80
2023/07/18 09:30:37;;;;;;;2.63;0.97;;;;;;;;;;5055194;28;20033;-81
2023/07/18 09:33:06;;;;;;;4.70;1.13;;;;;;;;;;5071954;28;20051;-82
2023/07/18 09:35:37;;;;;;;3.53;1.25;;;;;;;;;;5068776;28;20481;-82
2023/07/18 09:38:03;;;;;;;2.55;1.30;;;;;;;;;;5071225;28;20044;-80
2023/07/18 09:40:28;;;;;;;3.13;1.10;;;;;;;;;;5071206;28;20047;-80
2023/07/18 09:42:54;;;;;;;4.15;1.38;;;;;;;;;;5059772;28;20032;-80
2023/07/18 09:45:20;;;;;;;3.97;1.25;;;;;;;;;;5059577;28;20043;-82
2023/07/18 09:47:46;;;;;;;4.15;1.08;;;;;;;;;;5063881;28;20029;-82
2023/07/18 09:50:13;;;;;;;4.10;1.20;;;;;;;;;;5060156;28;20048;-82
2023/07/18 09:52:46;;;;;;;2.55;0.80;;;;;;;;;;5048524;28;20085;-80
2023/07/18 09:55:13;;;;;;;3.10;0.95;;;;;;;;;;5073669;28;20060;-81
2023/07/18 09:57:42;;;;;;;2.97;1.02;;;;;;;;;;5061088;28;20039;-81
2023/07/18 10:00:15;;;;;;;3.33;0.95;;;;;;;;;;5064799;28;20123;-81
2023/07/18 10:02:41;;;;;;;3.78;0.90;;;;;;;;;;5047639;28;20040;-81
2023/07/18 10:05:09;;;;;;;2.55;0.98;;;;;;;;;;5066384;28;20035;-81
2023/07/18 10:07:36;;;;;;;2.83;1.00;;;;;;;;;;5063505;28;20038;-81
2023/07/18 10:10:07;;;;;;;3.30;1.17;;;;;;;;;;5058620;27;20089;-82
2023/07/18 10:12:55;;;;;;;3.10;1.20;;;;;;;;;;5067673;28;20036;-81
2023/07/18 10:15:21;;;;;;;2.58;1.02;;;;;;;;;;5074789;28;20048;-81
2023/07/18 10:17:47;;;;;;;3.25;0.90;;;;;;;;;;5073158;28;20514;-81
2023/07/18 10:20:40;;;;;;;3.42;1.10;;;;;;;;;;5056008;28;20724;-80
2023/07/18 10:23:08;;;;;;;2.95;1.20;;;;;;;;;;5066691;28;20699;-81
2023/07/18 10:25:33;;;;;;;3.58;1.10;;;;;;;;;;5065063;28;20033;-81
2023/07/18 10:27:59;;;;;;;3.65;0.90;;;;;;;;;;5063965;28;20078;-81
2023/07/18 10:30:38;;;;;;;2.58;0.80;;;;;;;;;;5067180;28;20109;-81
2023/07/18 10:33:03;;;;;;;2.75;0.82;;;;;;;;;;5057485;28;20036;-81
2023/07/18 10:35:29;;;;;;;4.30;1.10;;;;;;;;;;5058596;28;20073;-81
2023/07/18 10:37:56;;;;;;;2.55;0.70;;;;;;;;;;5065345;28;20050;-80
2023/07/18 10:40:39;;;;;;;3.95;1.15;;;;;;;;;;5066879;28;21017;-81
2023/07/18 10:43:07;;;;;;;2.00;0.80;;;;;;;;;;5062058;28;20029;-81
2023/07/18 10:45:45;;;;;;;4.28;1.20;;;;;;;;;;5065001;28;20495;-81
2023/07/18 10:48:15;;;;;;;3.20;0.98;;;;;;;;;;5056723;28;20496;-82
2023/07/18 10:50:41;;;;;;;3.55;0.90;;;;;;;;;;5076412;28;20028;-80
2023/07/18 10:53:11;;;;;;;3.67;1.00;;;;;;;;;;5083897;28;20045;-81
2023/07/18 10:55:45;;;;;;;3.53;0.90;;;;;;;;;;5056949;28;20029;-81
2023/07/18 10:58:18;;;;;;;3.17;0.95;;;;;;;;;;5060224;28;20453;-81
2023/07/18 11:00:44;;;;;;;2.85;0.80;;;;;;;;;;5066640;28;20031;-80
2023/07/18 11:03:34;;;;;;;3.88;0.95;;;;;;;;;;5064939;28;20412;-81
2023/07/18 11:06:04;;;;;;;2.45;0.90;;;;;;;;;;5064948;28;20220;-82
2023/07/18 11:08:33;;;;;;;2.10;0.70;;;;;;;;;;5062929;28;20052;-81
2023/07/18 11:11:05;;;;;;;3.97;1.05;;;;;;;;;;5076583;28;20083;-81
2023/07/18 11:13:32;;;;;;;2.80;0.80;;;;;;;;;;5062355;28;20071;-80
2023/07/18 11:16:07;;;;;;;2.65;0.90;;;;;;;;;;5063722;28;20093;-81
2023/07/18 11:18:34;;;;;;;2.28;0.82;;;;;;;;;;5053010;28;20483;-81
2023/07/18 11:21:04;;;;;;;4.55;0.98;;;;;;;;;;5065215;28;20028;-81
2023/07/18 11:23:34;;;;;;;2.92;0.80;;;;;;;;;;5062821;28;20150;-80
2023/07/18 11:25:59;;;;;;;4.50;1.10;;;;;;;;;;5076087;28;20519;-80
2023/07/18 11:28:29;;;;;;;3.10;0.80;;;;;;;;;;5060361;28;20106;-81
2023/07/18 11:30:54;;;;;;;3.05;0.80;;;;;;;;;;5073363;28;20035;-80
2023/07/18 11:33:22;;;;;;;4.13;0.90;;;;;;;;;;5066461;28;20458;-81
2023/07/18 11:36:09;;;;;;;4.35;1.00;;;;;;;;;;5059217;28;20036;-81
2023/07/18 11:38:36;;;;;;;2.67;0.98;;;;;;;;;;5036055;28;20519;-81
2023/07/18 11:41:02;;;;;;;2.70;1.05;;;;;;;;;;5025809;28;20566;-80
2023/07/18 11:43:29;;;;;;;3.55;0.90;;;;;;;;;;5034738;28;20076;-81
2023/07/18 11:45:56;;;;;;;2.92;0.90;;;;;;;;;;5021237;28;20048;-81
2023/07/18 11:48:21;;;;;;;;;;;;;;;;;;5016485;28;20049;-81
2023/07/18 11:50:53;;;;;;;1.70;0.70;;;;;;;;;;5013986;28;19920;-81
2023/07/18 11:53:26;;;;;;;2.55;0.80;;;;;;;;;;5018817;28;20033;-80
2023/07/18 11:55:53;;;;;;;4.05;1.10;;;;;;;;;;5037168;28;20049;-82
2023/07/18 11:58:19;;;;;;;2.45;0.80;;;;;;;;;;5025775;28;20036;-80
2023/07/18 12:00:46;;;;;;;3.13;0.90;;;;;;;;;;5015841;28;20463;-81
2023/07/18 12:03:12;;;;;;;2.40;0.80;;;;;;;;;;5038846;28;20064;-80
2023/07/18 12:05:37;;;;;;;1.83;0.63;;;;;;;;;;5023764;28;20056;-81
2023/07/18 12:08:02;;;;;;;2.87;0.93;;;;;;;;;;5002301;28;20037;-81
2023/07/18 12:10:35;;;;;;;2.85;1.02;;;;;;;;;;5011030;28;20124;-80
2023/07/18 12:13:01;;;;;;;2.78;0.90;;;;;;;;;;5021961;28;20593;-80
2023/07/18 12:15:26;;;;;;;2.80;0.80;;;;;;;;;;5035880;28;20128;-81
2023/07/18 12:17:52;;;;;;;2.67;0.80;;;;;;;;;;5071692;28;20491;-81
2023/07/18 12:20:17;;;;;;;2.03;0.80;;;;;;;;;;5046942;28;20061;-81
2023/07/18 12:22:43;;;;;;;3.05;0.93;;;;;;;;;;5047528;28;20608;-80
2023/07/18 12:25:08;;;;;;;4.05;0.95;;;;;;;;;;5057952;28;20116;-80
2023/07/18 12:27:34;;;;;;;3.33;0.80;;;;;;;;;;5058724;28;20044;-81
2023/07/18 12:29:59;;;;;;;3.00;0.80;;;;;;;;;;5073534;28;20036;-80
2023/07/18 12:32:24;;;;;;;3.83;0.90;;;;;;;;;;5063300;28;20124;-80
2023/07/18 12:34:50;;;;;;;3.08;1.00;;;;;;;;;;5066697;28;20040;-80
2023/07/18 12:37:15;;;;;;;3.95;0.90;;;;;;;;;;5081511;28;20029;-79
2023/07/18 12:39:41;;;;;;;2.40;0.80;;;;;;;;;;5062437;28;20107;-80
2023/07/18 12:42:06;;;;;;;4.28;1.00;;;;;;;;;;5072652;28;20307;-80
2023/07/18 12:44:40;;;;;;;2.22;0.63;;;;;;;;;;5064747;28;20058;-80
2023/07/18 12:47:06;;;;;;;3.88;1.20;;;;;;;;;;5065107;28;20492;-80
2023/07/18 12:49:32;;;;;;;4.57;0.88;;;;;;;;;;5064767;28;20040;-80
2023/07/18 12:51:57;;;;;;;2.75;0.90;;;;;;;;;;5063342;28;20085;-79
2023/07/18 12:54:23;;;;;;;4.13;0.95;;;;;;;;;;5049391;28;20064;-80
2023/07/18 12:56:49;;;;;;;2.60;0.90;;;;;;;;;;5065729;28;20042;-80
2023/07/18 12:59:14;;;;;;;2.13;0.68;;;;;;;;;;5062744;28;20119;-79
2023/07/18 13:01:39;;;;;;;4.45;1.25;;;;;;;;;;5064524;28;20040;-80
2023/07/18 13:04:05;;;;;;;2.38;0.80;;;;;;;;;;5057547;28;20306;-79
2023/07/18 13:06:31;;;;;;;2.97;0.90;;;;;;;;;;5065552;28;20063;-81
2023/07/18 13:08:56;;;;;;;2.38;0.90;;;;;;;;;;5071696;28;20031;-80
2023/07/18 13:11:42;;;;;;;3.22;1.13;;;;;;;;;;5064540;28;20024;-81
2023/07/18 13:14:10;;;;;;;3.35;1.13;;;;;;;;;;4997031;28;20525;-80
2023/07/18 13:16:36;;;;;;;3.67;0.93;;;;;;;;;;4995975;28;20045;-81
2023/07/18 13:19:02;;;;;;;3.13;0.90;;;;;;;;;;4998014;28;20075;-80
2023/07/18 13:21:30;;;;;;;4.32;1.10;;;;;;;;;;5004883;28;20042;-81
2023/07/18 13:23:55;;;;;;;3.45;0.90;;;;;;;;;;4999235;28;20065;-81
2023/07/18 13:26:21;;;;;;;2.72;0.80;;;;;;;;;;4980237;28;20605;-81
2023/07/18 13:28:46;;;;;;;3.40;0.90;;;;;;;;;;4988726;28;20053;-80
2023/07/18 13:31:12;;;;;;;3.08;0.88;;;;;;;;;;4997126;28;20033;-82
2023/07/18 13:33:38;;;;;;;1.80;0.68;;;;;;;;;;4985004;28;20037;-79
2023/07/18 13:36:05;;;;;;;3.67;0.87;;;;;;;;;;4991654;28;20501;-81
2023/07/18 13:38:30;;;;;;;3.03;0.82;;;;;;;;;;4987924;28;20057;-81
2023/07/18 13:40:56;;;;;;;3.00;0.80;;;;;;;;;;4998234;28;20045;-79
2023/07/18 13:43:22;;;;;;;2.67;0.90;;;;;;;;;;5006112;28;20038;-80
2023/07/18 13:45:52;;;;;;;3.13;0.80;;;;;;;;;;4980797;28;20459;-79
2023/07/18 13:48:18;;;;;;;2.97;0.77;;;;;;;;;;4998861;28;20037;-80
2023/07/18 13:50:43;;;;;;;2.05;0.52;;;;;;;;;;5003857;28;20047;-82
2023/07/18 13:53:17;;;;;;;2.00;0.80;;;;;;;;;;5069379;28;20035;-80
2023/07/18 13:55:42;;;;;;;2.22;0.63;;;;;;;;;;5045651;28;20283;-82
2023/07/18 13:58:08;;;;;;;4.05;0.80;;;;;;;;;;5076739;27;20147;-81
2023/07/18 14:00:34;;;;;;;2.33;0.80;;;;;;;;;;5070761;28;20040;-81
2023/07/18 14:03:08;;;;;;;2.80;0.70;;;;;;;;;;5065307;28;20028;-80
2023/07/18 14:05:34;;;;;;;2.80;0.73;;;;;;;;;;5060754;28;20140;-80
2023/07/18 14:08:00;;;;;;;2.50;0.80;;;;;;;;;;5051100;28;20106;-81
2023/07/18 14:10:25;;;;;;;1.58;0.60;;;;;;;;;;5076035;28;20175;-80
2023/07/18 14:12:51;;;;;;;2.65;0.60;;;;;;;;;;5056831;28;20500;-81
2023/07/18 14:15:16;;;;;;;1.85;0.73;;;;;;;;;;5059216;28;20460;-81
2023/07/18 14:17:41;;;;;;;2.58;0.82;;;;;;;;;;5069385;28;20039;-82
2023/07/18 14:20:08;;;;;;;2.83;0.75;;;;;;;;;;5065328;28;20780;-80
2023/07/18 14:22:34;;;;;;;3.10;0.87;;;;;;;;;;5061146;28;20058;-80
2023/07/18 14:25:01;;;;;;;3.30;0.90;;;;;;;;;;5066766;28;20032;-80
2023/07/18 14:27:46;;;;;;;3.55;0.95;;;;;;;;;;5066395;28;20036;-80
2023/07/18 14:30:12;;;;;;;4.65;1.10;;;;;;;;;;4957668;28;20039;-80
2023/07/18 14:32:38;;;;;;;3.42;0.90;;;;;;;;;;4968164;28;20041;-80
2023/07/18 14:35:05;;;;;;;3.22;1.00;;;;;;;;;;4970354;28;24644;-80
2023/07/18 14:37:31;;;;;;;;;;;;;;;;;;4942514;28;20425;-80
2023/07/18 14:39:58;;;;;;;2.53;0.80;;;;;;;;;;4942907;28;19914;-80
2023/07/18 14:42:23;;;;;;;3.53;0.80;;;;;;;;;;4968933;28;20414;-80